createdAt,value
2023-05-21T00:00:22.147Z,19.70
2023-05-21T00:02:49.289Z,23.40
2023-05-21T00:05:18.207Z,26.45
2023-05-21T00:07:45.766Z,24.23
2023-05-21T00:10:12.383Z,23.27
2023-05-21T00:12:39.023Z,21.85
2023-05-21T00:15:06.109Z,24.27
2023-05-21T00:17:33.972Z,20.38
2023-05-21T00:20:02.082Z,28.88
2023-05-21T00:22:28.631Z,23.38
2023-05-21T00:24:55.258Z,23.05
2023-05-21T00:27:21.822Z,24.55
2023-05-21T00:29:48.401Z,26.67
2023-05-21T00:32:15.183Z,22.17
2023-05-21T00:34:42.285Z,21.23
2023-05-21T00:37:09.927Z,23.98
2023-05-21T00:39:36.930Z,26.75
2023-05-21T00:42:03.967Z,21.77
2023-05-21T00:44:34.064Z,24.25
2023-05-21T00:47:04.406Z,24.87
2023-05-21T00:49:31.892Z,23.20
2023-05-21T00:52:01.462Z,22.50
2023-05-21T00:54:28.763Z,21.60
2023-05-21T00:56:56.202Z,23.85
2023-05-21T00:59:24.000Z,21.83
2023-05-21T01:01:56.252Z,20.52
2023-05-21T01:04:26.188Z,23.08
2023-05-21T01:06:53.440Z,22.40
2023-05-21T01:09:20.330Z,21.83
2023-05-21T01:11:50.063Z,22.05
2023-05-21T01:14:18.827Z,21.88
2023-05-21T01:16:49.523Z,19.38
2023-05-21T01:19:21.803Z,20.25
2023-05-21T01:21:53.095Z,20.52
2023-05-21T01:24:19.767Z,20.98
2023-05-21T01:26:46.556Z,20.25
2023-05-21T01:29:14.258Z,18.88
2023-05-21T01:31:44.353Z,18.55
2023-05-21T01:34:13.537Z,16.53
2023-05-21T01:36:46.052Z,21.02
2023-05-21T01:39:19.857Z,20.73
2023-05-21T01:41:49.310Z,18.67
2023-05-21T01:44:18.701Z,19.55
2023-05-21T01:46:45.524Z,18.60
2023-05-21T01:49:13.284Z,17.48
2023-05-21T01:51:40.409Z,20.55
2023-05-21T01:54:07.080Z,19.13
2023-05-21T01:56:34.175Z,19.85
2023-05-21T01:59:00.828Z,18.08
2023-05-21T02:01:30.008Z,19.00
2023-05-21T02:03:57.945Z,17.70
2023-05-21T02:06:24.961Z,17.52
2023-05-21T02:08:51.839Z,20.58
2023-05-21T02:11:18.511Z,17.35
2023-05-21T02:13:46.079Z,20.85
2023-05-21T02:16:15.689Z,16.25
2023-05-21T02:18:46.309Z,19.25
2023-05-21T02:21:12.972Z,18.17
2023-05-21T02:23:39.583Z,18.58
2023-05-21T02:26:06.271Z,19.67
2023-05-21T02:28:33.769Z,20.15
2023-05-21T02:31:00.962Z,21.80
2023-05-21T02:33:27.673Z,22.38
2023-05-21T02:35:54.323Z,23.05
2023-05-21T02:38:22.959Z,23.40
2023-05-21T02:40:51.022Z,19.90
2023-05-21T02:43:17.809Z,22.23
2023-05-21T02:45:44.566Z,21.55
2023-05-21T02:48:11.444Z,22.00
2023-05-21T02:50:38.083Z,23.95
2023-05-21T02:53:04.705Z,22.85
2023-05-21T02:55:31.280Z,23.67
2023-05-21T02:57:57.922Z,21.95
2023-05-21T03:00:24.566Z,22.17
2023-05-21T03:02:51.249Z,23.77
2023-05-21T03:05:17.957Z,22.13
2023-05-21T03:07:44.603Z,24.42
2023-05-21T03:10:11.257Z,22.65
2023-05-21T03:12:38.071Z,21.88
2023-05-21T03:15:05.015Z,26.02
2023-05-21T03:17:32.150Z,26.40
2023-05-21T03:19:58.786Z,33.33
2023-05-21T03:22:25.459Z,22.50
2023-05-21T03:24:53.323Z,21.85
2023-05-21T03:27:19.961Z,22.05
2023-05-21T03:29:46.541Z,21.45
2023-05-21T03:32:13.913Z,24.67
2023-05-21T03:34:40.737Z,22.73
2023-05-21T03:37:07.353Z,24.30
2023-05-21T03:39:33.950Z,34.60
2023-05-21T03:42:00.696Z,24.77
2023-05-21T03:44:27.849Z,23.92
2023-05-21T03:46:54.512Z,23.55
2023-05-21T03:49:21.118Z,24.00
2023-05-21T03:51:47.677Z,22.98
2023-05-21T03:54:14.312Z,25.45
2023-05-21T03:56:40.891Z,25.25
2023-05-21T03:59:07.543Z,24.23
2023-05-21T04:01:34.811Z,23.00
2023-05-21T04:04:02.022Z,24.05
2023-05-21T04:06:30.034Z,25.23
2023-05-21T04:08:56.646Z,24.45
2023-05-21T04:11:23.266Z,24.38
2023-05-21T04:13:50.198Z,24.55
2023-05-21T04:16:18.889Z,28.50
2023-05-21T04:18:46.529Z,26.33
2023-05-21T04:21:13.622Z,26.92
2023-05-21T04:23:40.270Z,29.25
2023-05-21T04:26:07.546Z,29.40
2023-05-21T04:28:35.313Z,25.60
2023-05-21T04:31:02.060Z,23.35
2023-05-21T04:33:28.797Z,24.40
2023-05-21T04:35:55.581Z,21.20
2023-05-21T04:38:22.156Z,25.33
2023-05-21T04:40:52.240Z,20.25
2023-05-21T04:43:25.632Z,23.07
2023-05-21T04:45:58.415Z,22.98
2023-05-21T04:48:26.962Z,23.85
2023-05-21T04:50:54.054Z,23.10
2023-05-21T04:53:20.794Z,27.17
2023-05-21T04:55:47.866Z,22.85
2023-05-21T04:58:17.596Z,25.10
2023-05-21T05:00:46.039Z,25.40
2023-05-21T05:03:13.510Z,24.92
2023-05-21T05:05:40.317Z,22.42
2023-05-21T05:08:07.559Z,22.88
2023-05-21T05:10:34.832Z,25.55
2023-05-21T05:13:01.448Z,22.92
2023-05-21T05:15:28.042Z,24.65
2023-05-21T05:17:54.854Z,26.90
2023-05-21T05:20:21.671Z,28.13
2023-05-21T05:22:48.243Z,31.05
2023-05-21T05:25:14.850Z,33.17
2023-05-21T05:27:41.430Z,30.33
2023-05-21T05:30:08.573Z,28.38
2023-05-21T05:32:35.506Z,28.02
2023-05-21T05:35:03.169Z,30.13
2023-05-21T05:37:29.723Z,32.38
2023-05-21T05:39:56.290Z,29.40
2023-05-21T05:42:22.868Z,32.97
2023-05-21T05:44:49.493Z,29.10
2023-05-21T05:47:17.139Z,32.33
2023-05-21T05:49:43.710Z,31.30
2023-05-21T05:52:10.715Z,28.10
2023-05-21T05:54:37.336Z,31.10
2023-05-21T05:57:04.221Z,33.33
2023-05-21T05:59:30.946Z,32.35
2023-05-21T06:01:57.676Z,28.95
2023-05-21T06:04:24.252Z,33.58
2023-05-21T06:06:50.904Z,34.13
2023-05-21T06:09:17.852Z,34.72
2023-05-21T06:11:44.460Z,35.90
2023-05-21T06:14:11.016Z,33.28
2023-05-21T06:16:37.923Z,33.85
2023-05-21T06:19:04.804Z,36.25
2023-05-21T06:21:31.536Z,35.38
2023-05-21T06:23:58.178Z,34.42
2023-05-21T06:26:24.933Z,31.05
2023-05-21T06:28:51.830Z,31.52
2023-05-21T06:31:18.792Z,31.17
2023-05-21T06:33:45.609Z,31.27
2023-05-21T06:36:12.491Z,28.00
2023-05-21T06:38:39.224Z,30.15
2023-05-21T06:41:05.859Z,30.85
2023-05-21T06:43:32.437Z,30.25
2023-05-21T06:45:59.180Z,30.85
2023-05-21T06:48:26.170Z,28.60
2023-05-21T06:50:52.858Z,28.80
2023-05-21T06:53:19.615Z,30.05
2023-05-21T06:55:46.488Z,28.60
2023-05-21T06:58:13.339Z,30.70
2023-05-21T07:00:39.910Z,31.63
2023-05-21T07:03:06.672Z,30.30
2023-05-21T07:05:33.457Z,30.60
2023-05-21T07:08:00.101Z,30.33
2023-05-21T07:10:26.737Z,31.08
2023-05-21T07:12:53.462Z,30.13
2023-05-21T07:15:20.130Z,31.55
2023-05-21T07:17:46.820Z,30.00
2023-05-21T07:20:13.801Z,30.27
2023-05-21T07:22:41.112Z,30.98
2023-05-21T07:25:08.216Z,30.27
2023-05-21T07:27:34.817Z,28.58
2023-05-21T07:30:01.557Z,28.50
2023-05-21T07:32:29.109Z,26.98
2023-05-21T07:34:56.406Z,25.50
2023-05-21T07:37:23.032Z,25.38
2023-05-21T07:39:49.688Z,28.73
2023-05-21T07:42:16.296Z,28.23
2023-05-21T07:44:42.887Z,26.05
2023-05-21T07:47:09.549Z,27.83
2023-05-21T07:49:36.137Z,28.00
2023-05-21T07:52:02.811Z,27.38
2023-05-21T07:54:29.395Z,25.35
2023-05-21T07:56:56.299Z,24.30
2023-05-21T07:59:22.919Z,27.85
2023-05-21T08:01:49.489Z,26.50
2023-05-21T08:04:16.462Z,26.75
2023-05-21T08:06:43.185Z,25.40
2023-05-21T08:09:09.780Z,25.20
2023-05-21T08:11:36.318Z,24.80
2023-05-21T08:14:02.957Z,24.98
2023-05-21T08:16:29.691Z,24.77
2023-05-21T08:18:56.345Z,25.65
2023-05-21T08:21:23.200Z,25.40
2023-05-21T08:23:53.177Z,22.42
2023-05-21T08:26:19.785Z,21.10
2023-05-21T08:28:46.370Z,23.33
2023-05-21T08:31:13.132Z,23.08
2023-05-21T08:33:39.764Z,22.98
2023-05-21T08:36:07.117Z,23.60
2023-05-21T08:38:34.830Z,22.20
2023-05-21T08:41:01.501Z,22.85
2023-05-21T08:43:29.067Z,19.80
2023-05-21T08:46:00.345Z,21.88
2023-05-21T08:48:28.006Z,19.92
2023-05-21T08:50:54.922Z,20.95
2023-05-21T08:53:29.084Z,21.77
2023-05-21T08:55:57.049Z,21.38
2023-05-21T08:58:23.700Z,18.30
2023-05-21T09:00:50.740Z,23.33
2023-05-21T09:03:18.935Z,21.50
2023-05-21T09:05:45.945Z,20.98
2023-05-21T09:08:21.668Z,18.05
2023-05-21T09:10:52.196Z,21.70
2023-05-21T09:15:47.237Z,18.90
2023-05-21T09:18:14.808Z,18.90
2023-05-21T09:20:41.845Z,20.05
2023-05-21T09:23:12.328Z,18.42
2023-05-21T09:25:39.641Z,18.67
2023-05-21T09:28:12.323Z,16.77
2023-05-21T09:30:45.107Z,19.13
2023-05-21T09:33:11.977Z,14.05
2023-05-21T09:35:45.545Z,15.27
2023-05-21T09:38:12.317Z,17.27
2023-05-21T09:40:45.073Z,18.25
2023-05-21T09:43:15.395Z,18.60
2023-05-21T09:45:52.684Z,18.88
2023-05-21T09:48:34.416Z,17.27
2023-05-21T09:51:15.872Z,15.93
2023-05-21T09:53:57.639Z,16.15
2023-05-21T09:56:25.938Z,21.50
2023-05-21T09:58:57.194Z,18.70
2023-05-21T10:01:24.596Z,20.63
2023-05-21T10:03:56.375Z,16.02
2023-05-21T10:06:26.688Z,16.23
2023-05-21T10:08:57.663Z,18.95
2023-05-21T10:11:27.124Z,24.08
2023-05-21T10:14:12.437Z,16.55
2023-05-21T10:16:39.770Z,17.80
2023-05-21T10:19:10.917Z,14.52
2023-05-21T10:21:39.638Z,15.50
2023-05-21T10:24:08.419Z,17.48
2023-05-21T10:26:36.145Z,17.20
2023-05-21T10:29:03.225Z,16.08
2023-05-21T10:31:29.873Z,20.45
2023-05-21T10:33:56.689Z,18.33
2023-05-21T10:36:31.653Z,15.80
2023-05-21T10:39:00.011Z,17.15
2023-05-21T10:41:31.706Z,17.30
2023-05-21T10:44:39.822Z,14.98
2023-05-21T10:47:39.893Z,16.27
2023-05-21T10:50:18.423Z,13.80
2023-05-21T10:53:13.693Z,18.35
2023-05-21T10:55:58.999Z,13.48
2023-05-21T10:58:56.185Z,13.27
2023-05-21T11:01:26.316Z,12.35
2023-05-21T11:03:53.247Z,12.18
2023-05-21T11:06:25.573Z,13.18
2023-05-21T11:08:55.340Z,12.23
2023-05-21T11:11:45.974Z,13.52
2023-05-21T11:14:35.719Z,13.43
2023-05-21T11:17:16.210Z,14.27
2023-05-21T11:19:51.415Z,14.55
2023-05-21T11:22:27.518Z,11.73
2023-05-21T11:24:56.173Z,13.77
2023-05-21T11:27:38.481Z,12.55
2023-05-21T11:30:16.167Z,12.75
2023-05-21T11:33:07.458Z,12.55
2023-05-21T11:35:44.691Z,11.55
2023-05-21T11:38:11.420Z,10.93
2023-05-21T11:40:38.536Z,11.73
2023-05-21T11:43:05.284Z,11.25
2023-05-21T11:45:33.131Z,12.80
2023-05-21T11:48:00.523Z,12.65
2023-05-21T11:50:30.620Z,11.90
2023-05-21T11:52:59.701Z,10.45
2023-05-21T11:55:26.856Z,10.00
2023-05-21T11:57:55.005Z,9.57
2023-05-21T12:00:21.725Z,10.02
2023-05-21T12:02:51.705Z,12.82
2023-05-21T12:05:18.562Z,10.80
2023-05-21T12:07:50.185Z,10.20
2023-05-21T12:10:20.334Z,8.88
2023-05-21T12:12:54.842Z,15.57
2023-05-21T12:15:24.365Z,8.70
2023-05-21T12:17:52.728Z,7.55
2023-05-21T12:20:20.000Z,9.55
2023-05-21T12:22:49.009Z,10.00
2023-05-21T12:25:19.735Z,9.48
2023-05-21T12:30:14.060Z,8.55
2023-05-21T12:32:43.982Z,10.75
2023-05-21T12:35:20.859Z,10.05
2023-05-21T12:37:48.187Z,10.63
2023-05-21T12:40:14.937Z,11.48
2023-05-21T12:42:44.307Z,10.93
2023-05-21T12:45:11.501Z,11.93
2023-05-21T12:47:38.506Z,11.18
2023-05-21T12:50:11.580Z,10.52
2023-05-21T12:52:40.643Z,10.48
2023-05-21T12:55:09.481Z,9.93
2023-05-21T12:57:38.738Z,10.05
2023-05-21T13:00:07.649Z,10.13
2023-05-21T13:02:39.506Z,12.98
2023-05-21T13:05:08.014Z,10.32
2023-05-21T13:07:37.965Z,9.38
2023-05-21T13:10:05.665Z,10.50
2023-05-21T13:12:33.588Z,10.23
2023-05-21T13:15:01.928Z,10.52
2023-05-21T13:17:28.899Z,10.50
2023-05-21T13:20:15.446Z,10.07
2023-05-21T13:22:47.770Z,9.80
2023-05-21T13:25:17.114Z,12.98
2023-05-21T13:27:44.321Z,10.68
2023-05-21T13:30:12.039Z,11.32
2023-05-21T13:32:40.135Z,9.38
2023-05-21T13:35:07.701Z,10.75
2023-05-21T13:37:38.072Z,9.98
2023-05-21T13:40:06.288Z,9.52
2023-05-21T13:42:33.903Z,9.88
2023-05-21T13:45:00.917Z,9.38
2023-05-21T13:47:27.596Z,8.27
2023-05-21T13:49:54.261Z,9.27
2023-05-21T13:52:21.518Z,9.77
2023-05-21T13:54:48.177Z,7.07
2023-05-21T13:57:15.314Z,7.45
2023-05-21T13:59:42.065Z,8.55
2023-05-21T14:02:10.886Z,5.70
2023-05-21T14:04:39.219Z,6.53
2023-05-21T14:07:06.887Z,7.47
2023-05-21T14:09:34.127Z,5.13
2023-05-21T14:12:01.396Z,5.32
2023-05-21T14:14:28.134Z,5.53
2023-05-21T14:16:54.761Z,5.70
2023-05-21T14:19:21.647Z,5.00
2023-05-21T14:21:48.611Z,7.38
2023-05-21T14:24:15.254Z,7.72
2023-05-21T14:26:41.890Z,6.32
2023-05-21T14:29:08.913Z,6.18
2023-05-21T14:31:35.924Z,6.60
2023-05-21T14:34:07.823Z,5.00
2023-05-21T14:36:34.745Z,3.67
2023-05-21T14:39:01.441Z,4.13
2023-05-21T14:41:28.108Z,3.92
2023-05-21T14:43:54.780Z,7.60
2023-05-21T14:46:21.897Z,4.47
2023-05-21T14:48:48.560Z,3.75
2023-05-21T14:51:15.567Z,3.70
2023-05-21T14:53:42.192Z,3.40
2023-05-21T14:56:08.840Z,3.75
2023-05-21T14:58:35.719Z,6.03
2023-05-21T15:01:03.949Z,4.55
2023-05-21T15:03:30.759Z,4.35
2023-05-21T15:05:58.411Z,3.42
2023-05-21T15:08:25.235Z,5.60
2023-05-21T15:10:51.895Z,4.25
2023-05-21T15:13:18.475Z,4.72
2023-05-21T15:15:45.086Z,4.40
2023-05-21T15:18:11.755Z,6.22
2023-05-21T15:20:38.381Z,4.10
2023-05-21T15:23:16.185Z,5.47
2023-05-21T15:25:44.490Z,4.78
2023-05-21T15:28:11.944Z,4.45
2023-05-21T15:30:38.600Z,4.95
2023-05-21T15:33:05.172Z,5.25
2023-05-21T15:35:31.830Z,4.15
2023-05-21T15:37:58.497Z,5.30
2023-05-21T15:40:27.016Z,5.78
2023-05-21T15:42:54.268Z,4.95
2023-05-21T15:45:21.221Z,5.05
2023-05-21T15:47:48.072Z,4.97
2023-05-21T15:50:14.829Z,5.75
2023-05-21T15:52:42.489Z,5.00
2023-05-21T15:55:09.652Z,5.10
2023-05-21T15:57:36.264Z,4.68
2023-05-21T16:00:04.796Z,5.03
2023-05-21T16:02:31.617Z,5.88
2023-05-21T16:04:58.261Z,6.78
2023-05-21T16:07:24.936Z,4.90
2023-05-21T16:09:51.625Z,7.45
2023-05-21T16:12:18.341Z,5.93
2023-05-21T16:14:48.318Z,5.75
2023-05-21T16:17:14.908Z,6.37
2023-05-21T16:19:41.558Z,8.23
2023-05-21T16:22:10.039Z,5.95
2023-05-21T16:24:37.655Z,5.68
2023-05-21T16:27:04.875Z,6.00
2023-05-21T16:29:31.649Z,7.57
2023-05-21T16:31:58.329Z,10.02
2023-05-21T16:34:25.041Z,7.07
2023-05-21T16:36:51.667Z,8.00
2023-05-21T16:39:18.404Z,11.00
2023-05-21T16:41:45.012Z,6.25
2023-05-21T16:44:11.741Z,6.65
2023-05-21T16:46:38.562Z,8.65
2023-05-21T16:49:05.276Z,8.25
2023-05-21T16:51:31.940Z,43.55
2023-05-21T16:53:58.610Z,14.07
2023-05-21T16:56:27.087Z,11.70
2023-05-21T16:58:53.687Z,8.02
2023-05-21T17:01:20.429Z,6.18
2023-05-21T17:03:47.185Z,7.45
2023-05-21T17:06:14.756Z,7.40
2023-05-21T17:08:42.341Z,5.47
2023-05-21T17:11:09.072Z,8.38
2023-05-21T17:13:35.655Z,5.28
2023-05-21T17:16:02.377Z,6.30
2023-05-21T17:18:29.040Z,5.63
2023-05-21T17:20:56.341Z,8.68
2023-05-21T17:23:23.041Z,5.57
2023-05-21T17:25:49.681Z,6.03
2023-05-21T17:28:16.213Z,6.63
2023-05-21T17:30:42.881Z,4.63
2023-05-21T17:33:10.392Z,7.82
2023-05-21T17:35:37.520Z,5.88
2023-05-21T17:38:04.342Z,13.02
2023-05-21T17:40:30.967Z,17.65
2023-05-21T17:42:57.586Z,8.80
2023-05-21T17:45:24.200Z,22.33
2023-05-21T17:47:50.877Z,12.27
2023-05-21T17:50:17.556Z,8.52
2023-05-21T17:52:44.250Z,8.18
2023-05-21T17:55:11.028Z,8.90
2023-05-21T17:57:37.624Z,7.53
2023-05-21T18:00:06.579Z,9.40
2023-05-21T18:02:33.178Z,7.93
2023-05-21T18:04:59.774Z,7.43
2023-05-21T18:07:26.359Z,6.22
2023-05-21T18:09:52.931Z,7.35
2023-05-21T18:12:19.522Z,11.10
2023-05-21T18:14:46.112Z,14.05
2023-05-21T18:17:12.981Z,8.98
2023-05-21T18:19:39.538Z,7.28
2023-05-21T18:22:06.132Z,12.80
2023-05-21T18:24:32.773Z,11.02
2023-05-21T18:26:59.549Z,10.65
2023-05-21T18:29:26.172Z,13.27
2023-05-21T18:31:52.878Z,11.23
2023-05-21T18:34:19.670Z,10.68
2023-05-21T18:36:46.574Z,15.18
2023-05-21T18:39:13.176Z,10.85
2023-05-21T18:41:39.937Z,10.77
2023-05-21T18:44:06.798Z,8.68
2023-05-21T18:46:33.585Z,9.68
2023-05-21T18:49:00.723Z,19.25
2023-05-21T18:51:27.465Z,11.23
2023-05-21T18:53:54.105Z,9.38
2023-05-21T18:56:21.728Z,10.20
2023-05-21T18:58:48.510Z,7.03
2023-05-21T19:01:15.323Z,7.22
2023-05-21T19:03:41.964Z,6.88
2023-05-21T19:06:09.071Z,6.45
2023-05-21T19:08:35.706Z,12.32
2023-05-21T19:11:02.427Z,9.90
2023-05-21T19:13:29.386Z,7.93
2023-05-21T19:15:57.382Z,7.63
2023-05-21T19:18:30.221Z,7.80
2023-05-21T19:20:57.344Z,10.52
2023-05-21T19:23:24.639Z,8.82
2023-05-21T19:25:51.394Z,7.70
2023-05-21T19:28:18.662Z,7.97
2023-05-21T19:30:46.163Z,7.47
2023-05-21T19:33:13.088Z,20.08
2023-05-21T19:35:41.806Z,12.07
2023-05-21T19:38:10.756Z,20.30
2023-05-21T19:40:37.869Z,15.75
2023-05-21T19:43:04.892Z,10.85
2023-05-21T19:45:31.608Z,8.50
2023-05-21T19:47:59.441Z,8.20
2023-05-21T19:50:28.380Z,8.60
2023-05-21T19:52:57.002Z,7.25
2023-05-21T19:55:24.539Z,8.32
2023-05-21T19:57:51.369Z,8.00
2023-05-21T20:00:18.703Z,7.43
2023-05-21T20:02:45.821Z,10.30
2023-05-21T20:05:12.633Z,10.52
2023-05-21T20:07:39.543Z,9.98
2023-05-21T20:10:06.920Z,10.18
2023-05-21T20:12:33.554Z,9.95
2023-05-21T20:15:00.738Z,9.18
2023-05-21T20:17:28.555Z,10.23
2023-05-21T20:19:57.102Z,10.30
2023-05-21T20:22:23.697Z,8.73
2023-05-21T20:24:50.351Z,13.07
2023-05-21T20:27:19.245Z,9.85
2023-05-21T20:29:46.371Z,13.43
2023-05-21T20:32:13.322Z,11.50
2023-05-21T20:34:54.219Z,15.85
2023-05-21T20:37:26.149Z,10.80
2023-05-21T20:39:57.624Z,12.43
2023-05-21T20:42:28.277Z,16.30
2023-05-21T20:44:55.392Z,13.38
2023-05-21T20:47:23.314Z,20.90
2023-05-21T20:49:53.582Z,23.67
2023-05-21T20:52:21.087Z,13.23
2023-05-21T20:54:48.747Z,10.75
2023-05-21T20:57:15.911Z,9.63
2023-05-21T20:59:43.018Z,19.05
2023-05-21T21:02:12.638Z,15.10
2023-05-21T21:04:39.685Z,13.50
2023-05-21T21:07:08.026Z,10.23
2023-05-21T21:09:34.896Z,8.73
2023-05-21T21:12:11.338Z,9.02
2023-05-21T21:14:48.092Z,9.00
2023-05-21T21:17:14.879Z,9.55
2023-05-21T21:19:41.474Z,6.80
2023-05-21T21:22:08.085Z,7.50
2023-05-21T21:24:34.869Z,7.18
2023-05-21T21:27:01.574Z,8.52
2023-05-21T21:29:28.206Z,7.05
2023-05-21T21:31:54.906Z,10.90
2023-05-21T21:34:23.398Z,8.40
2023-05-21T21:36:50.636Z,9.98
2023-05-21T21:39:17.626Z,7.60
2023-05-21T21:41:44.326Z,7.40
2023-05-21T21:44:10.964Z,7.13
2023-05-21T21:46:37.587Z,8.50
2023-05-21T21:49:04.389Z,8.48
2023-05-21T21:51:31.146Z,7.35
2023-05-21T21:53:57.746Z,8.40
2023-05-21T21:56:24.397Z,6.90
2023-05-21T21:58:50.943Z,7.93
2023-05-21T22:01:17.920Z,8.13
2023-05-21T22:03:44.627Z,8.43
2023-05-21T22:06:11.440Z,8.02
2023-05-21T22:08:38.030Z,9.65
2023-05-21T22:11:04.661Z,9.02
2023-05-21T22:13:31.270Z,10.35
2023-05-21T22:15:57.937Z,11.70
2023-05-21T22:18:36.371Z,10.57
2023-05-21T22:21:09.540Z,8.32
2023-05-21T22:23:37.545Z,9.35
2023-05-21T22:26:04.271Z,8.30
2023-05-21T22:28:30.889Z,8.55
2023-05-21T22:30:58.995Z,8.30
2023-05-21T22:33:26.519Z,8.95
2023-05-21T22:35:54.087Z,8.25
2023-05-21T22:38:20.731Z,10.85
2023-05-21T22:40:47.341Z,9.15
2023-05-21T22:43:14.073Z,11.07
2023-05-21T22:45:40.764Z,8.35
2023-05-21T22:48:08.892Z,8.60
2023-05-21T22:50:36.210Z,8.50
2023-05-21T22:53:03.073Z,8.75
2023-05-21T22:55:29.914Z,12.68
2023-05-21T22:57:56.632Z,10.00
2023-05-21T23:00:23.451Z,8.63
2023-05-21T23:02:53.052Z,11.90
2023-05-21T23:05:20.836Z,10.02
2023-05-21T23:07:47.515Z,10.88
2023-05-21T23:10:14.172Z,8.88
2023-05-21T23:12:41.271Z,8.88
2023-05-21T23:15:09.618Z,9.43
2023-05-21T23:17:37.208Z,8.73
2023-05-21T23:20:04.775Z,10.50
2023-05-21T23:22:31.529Z,10.25
2023-05-21T23:24:58.235Z,9.95
2023-05-21T23:27:24.845Z,11.80
2023-05-21T23:29:51.435Z,12.63
2023-05-21T23:32:18.278Z,9.57
2023-05-21T23:34:44.984Z,9.70
2023-05-21T23:37:11.908Z,10.27
2023-05-21T23:39:38.492Z,12.35
2023-05-21T23:42:05.627Z,11.35
2023-05-21T23:44:32.226Z,10.85
2023-05-21T23:46:58.815Z,10.38
2023-05-21T23:49:25.465Z,13.50
2023-05-21T23:51:52.194Z,11.30
2023-05-21T23:54:18.820Z,12.50
2023-05-21T23:56:45.958Z,10.27
2023-05-21T23:59:12.699Z,10.05
